Benton, New Hampshire
Current Conditions -  °F | °C
As of 12:55 AM on Friday 28 Nov 2014 (Local Time) from K1P1 Reporting Station
Light Snow Light Snow  
Wind Chill: 26°   Ceiling: 1100
Heat Index: 26°   Visibility: 2.5mi
Dew Point: 26°   Wind: 3mph
Humidity: 100%   Direction: 300°WNW
Pressure: 29.99"   Gusts: NA
Location:  44.0015°N, 72.0028°W
Report Text: K1P1 280555Z AUTO 30003KT 2 1/2SM -SN OVC011 M03/M03 A2999 RMK AO2 T10311031 11023 21037
Loading
Personal Weather Stations






























Interactive Weather Map New forecast layout! Learn more

10-Day Weather Forecast

Advertisements
Track Severe Weather on mobile